Terminal Aerodrome Forecast
Issued by NWS Lubbock, TX

Home | Current Version | Previous Version | Text Only | Print | Product List | Glossary On
Versions: 1 2 3 4 5 6 7 8 9 10 11 12 13 14 15 16 17 18 19 20 21 22 23 24 25 26 27 28 29
000
FTUS44 KLUB 201100
TAFLBB
TAF
KLBB 201137Z 2012/2112 23010KT 6SM BR OVC004
     FM201900 21011KT P6SM OVC010
     FM202100 20011KT P6SM SCT015
     FM210200 19008KT 6SM BR OVC010=

USA.gov is the U.S. government's official web portal to all federal, state and local government web resources and services.